Stations météo

réclame
Mon MeteoGroup
Schmücke, Allemagne (10552): Température de l'air & dewpoint: 17.05.2018 20:00:00 - 23.05.2018 20:00:00 (CEST)Schmücke, Allemagne (10552): Température de l'air 5cm & Température de l'air -5cm: 17.05.2018 20:00:00 - 23.05.2018 20:00:00 (CEST)Schmücke, Allemagne (10552): Température de l'air -20cm & Température de l'air -100cm: 17.05.2018 20:00:00 - 23.05.2018 20:00:00 (CEST)Schmücke, Allemagne (10552): Vitesse du vent & gusts: 17.05.2018 20:00:00 - 23.05.2018 20:00:00 (CEST)Schmücke, Allemagne (10552): Direction du vent: 17.05.2018 20:00:00 - 23.05.2018 20:00:00 (CEST)Schmücke, Allemagne (10552): visibility: 17.05.2018 20:00:00 - 23.05.2018 20:00:00 (CEST)Schmücke, Allemagne (10552): Ensoleillement: 17.05.2018 20:00:00 - 23.05.2018 20:00:00 (CEST)Schmücke, Allemagne (10552): Quantités de précipitations: 17.05.2018 20:00:00 - 23.05.2018 20:00:00 (CEST)
Date & Time tt [°C] td [°C] tt 5cm [°C] tt -5cm [°C] tt -20cm [°C] tt -100cm [°C] ff [km/h] ff [knt] fx [km/h] fx [knt] dd vv [km] sd [min] rr [mm]
23.05.2018 20:00:00 11,9 11,1 11,6 15,3 17,1 11,4 23 12 38 20 ENE 5 0 0,0
23.05.2018 19:00:00 11,9 11,1 11,7 15,2 17,5 11,4 20 11 34 19 ENE 5 0 3,3
23.05.2018 18:00:00 11,5 11,0 11,2 15,9 18,0 11,4 18 10 42 23 ENE 2,3 0 12,0
23.05.2018 17:00:00 11,8 11,1 11,6 17,8 18,1 11,4 24 13 49 26 E 0,6 0 23,3
23.05.2018 16:00:00 13,7 11,9 12,7 22,0 17,5 11,4 13 7 30 16 NE 0,9 12 0,9
23.05.2018 15:00:00 18,1 11,7 22,8 24,9 16,8 11,3 16 8 35 19 NE 14 43 0,0
23.05.2018 14:00:00 17,2 11,2 22,6 23,1 16,1 11,3 17 9 39 21 NE 13 53 0,0
23.05.2018 13:00:00 16,3 10,4 19,3 22,2 15,4 11,3 17 9 35 19 NE 16 57 0,0
23.05.2018 12:00:00 16,7 10,2 21,3 19,5 14,9 11,3 19 11 42 23 ENE 20 60 0,0
23.05.2018 11:00:00 15,9 9,9 19,0 17,0 14,6 11,3 25 14 42 23 ENE 21 44 0,0
23.05.2018 10:00:00 15,2 9,3 18,1 15,2 14,5 11,3 22 12 42 23 ENE 21 38 0,0
23.05.2018 09:00:00 13,6 7,9 14,2 13,7 14,5 11,3 18 10 29 16 NE 32 51 0,0
23.05.2018 08:00:00 13,9 7,2 14,6 12,7 14,7 11,3 14 8 26 14 NE 33 60 0,0
23.05.2018 07:00:00 12,8 6,7 11,7 12,0 14,9 11,2 15 8 26 14 NE 26 59 0,0
23.05.2018 06:00:00 12,4 6,3 10,5 12,1 15,2 11,2 18 10 26 14 ENE 34 0 0,0
23.05.2018 05:00:00 12,7 6,3 11,3 12,4 15,5 11,2 16 9 24 13 ENE 32 0 0,0
23.05.2018 04:00:00 12,1 6,4 10,2 12,7 15,9 11,2 17 9 24 13 ENE 32 0 0,0
23.05.2018 03:00:00 12,0 6,2 10,1 13,2 16,2 11,2 17 9 23 12 ENE 32 0 0,0
23.05.2018 02:00:00 12,5 6,1 11,1 13,8 16,6 11,2 15 8 22 12 NE 34 0 0,0
23.05.2018 01:00:00 12,7 6,5 11,2 14,4 17,0 11,2 14 8 25 14 NE 33 0 0,0
23.05.2018 00:00:00 12,7 7,1 10,9 15,1 17,3 11,2 16 8 23 13 NE 34 0 0,0
22.05.2018 23:00:00 13,2 6,7 11,7 16,0 17,7 11,2 15 8 23 13 NE 36 0 0,0
22.05.2018 22:00:00 13,9 6,1 12,8 17,0 18,0 11,1 13 7 24 13 NE 39 0 0,0
22.05.2018 21:00:00 14,6 5,3 13,2 18,3 18,2 11,1 11 6 21 12 NE 44 0 0,0
22.05.2018 20:00:00 15,6 6,5 14,8 20,0 18,2 11,1 11 6 23 12 NNE 43 11 0,0
22.05.2018 19:00:00 17,2 6,6 17,9 21,7 18,0 11,1 9 5 27 14 NNE 39 50 0,0
22.05.2018 18:00:00 18,6 6,8 20,6 22,4 17,7 11,1 9 5 26 14 NNE 30 55 0,0
22.05.2018 17:00:00 17,9 6,9 19,1 21,1 17,5 11,1 8 4 19 10 NE 35 0 0,0
22.05.2018 16:00:00 17,8 5,9 19,3 21,5 17,2 11,1 12 7 22 12 ENE 41 0 0,0
22.05.2018 15:00:00 17,7 5,8 18,6 22,6 16,7 11,1 9 5 19 11 E 38 6 0,0
22.05.2018 14:00:00 18,2 6,4 20,2 22,3 16,2 11,1 10 5 22 12 ESE 39 18 0,0
22.05.2018 13:00:00 17,0 7,3 18,9 19,7 15,9 11,0 8 4 21 12 E 36 0 0,0
22.05.2018 12:00:00 16,5 6,6 17,9 19,7 15,3 11,0 7 4 25 14 NE 38 11 0,0
22.05.2018 11:00:00 17,6 6,2 21,1 19,8 14,7 11,0 11 6 27 14 ENE 27 60 0,0
22.05.2018 10:00:00 16,6 5,2 19,8 16,5 14,5 11,0 13 7 25 13 E 29 60 0,0
22.05.2018 09:00:00 16,4 5,7 18,2 14,1 14,4 11,0 9 5 15 8 ESE 36 46 0,0
22.05.2018 08:00:00 14,7 5,5 15,8 12,8 14,6 11,0 8 4 15 8 SE 41 41 0,0
22.05.2018 07:00:00 13,2 4,8 12,5 11,7 14,9 11,0 5 3 21 11 SSE 38 52 0,0
22.05.2018 06:00:00 12,4 4,9 10,5 11,8 15,3 11,0 13 7 29 15 SSE 49 0 0,0
22.05.2018 05:00:00 11,9 5,7 10,0 12,1 15,7 11,0 14 8 25 13 SSE 47 0 0,0
22.05.2018 04:00:00 11,5 6,0 9,6 12,6 16,1 11,0 12 7 24 13 SSE 46 0 0,0
22.05.2018 03:00:00 11,0 5,8 9,3 13,1 16,5 11,0 10 6 19 11 SE 41 0 0,0
22.05.2018 02:00:00 10,8 5,8 9,0 13,8 17,0 11,0 10 6 24 13 ESE 41 0 0,0
22.05.2018 01:00:00 11,4 6,2 9,7 14,6 17,5 11,0 13 7 27 15 E 35 0 0,0
22.05.2018 00:00:00 11,5 6,7 10,6 15,4 18,0 10,9 15 8 29 16 E 36 0 0,0
21.05.2018 23:00:00 11,3 6,9 9,9 16,4 18,4 10,9 15 8 27 15 ENE 33 0 0,0
21.05.2018 22:00:00 12,0 7,1 10,7 17,9 18,8 10,9 17 9 25 14 NE 39 0 0,0
21.05.2018 21:00:00 13,5 6,5 12,2 19,8 19,1 10,9 14 7 31 17 ENE 45 37 0,0
21.05.2018 20:00:00 15,7 5,2 14,7 22,5 19,1 10,9 17 9 41 22 ENE 54 60 0,0
21.05.2018 19:00:00 17,4 4,0 19,5 24,7 18,8 10,9 16 9 31 17 E 41 60 0,0
21.05.2018 18:00:00 17,9 4,0 21,3 26,1 18,3 10,9 18 10 36 19 ENE 31 59 0,0
21.05.2018 17:00:00 18,2 4,5 22,5 26,5 17,6 10,9 16 9 36 20 ENE 35 55 0,0
21.05.2018 16:00:00 18,0 4,5 22,8 26,6 16,8 10,9 14 7 36 20 E 26 57 0,0
21.05.2018 15:00:00 17,8 5,2 24,6 25,8 15,9 10,9 17 9 37 20 E 23 57 0,0
21.05.2018 14:00:00 17,1 5,8 22,1 24,3 15,0 10,9 16 9 41 22 E 27 58 0,0
21.05.2018 13:00:00 16,2 5,9 21,1 22,2 14,1 10,9 18 10 44 24 ENE 24 60 0,0
21.05.2018 12:00:00 14,8 5,3 18,1 19,6 13,5 10,9 24 13 42 23 ENE 32 60 0,0
21.05.2018 11:00:00 14,2 5,2 16,8 16,8 13,0 10,9 26 14 45 24 E 23 60 0,0
21.05.2018 10:00:00 13,9 6,4 16,2 14,1 12,7 10,9 19 10 39 21 ENE 23 60 0,0
21.05.2018 09:00:00 12,7 6,1 14,7 11,8 12,7 10,9 19 11 40 22 E 22 60 0,0
21.05.2018 08:00:00 11,1 5,9 11,9 10,3 12,9 10,9 19 11 34 18 ENE 25 60 0,0
21.05.2018 07:00:00 9,3 5,2 8,3 9,5 13,2 10,9 19 11 37 20 E 38 60 0,0
21.05.2018 06:00:00 8,7 5,5 7,3 9,7 13,6 10,9 19 11 33 18 E 24 0 0,0
21.05.2018 05:00:00 8,9 5,7 7,1 10,0 13,9 10,9 17 9 34 18 E 22 0 0,0
21.05.2018 04:00:00 9,3 5,5 7,8 10,5 14,3 10,9 19 11 37 20 E 26 0 0,0
21.05.2018 03:00:00 9,6 5,2 7,7 11,0 14,8 10,9 21 11 39 21 E 31 0 0,0
21.05.2018 02:00:00 10,0 4,3 8,4 11,5 15,2 10,9 23 12 42 23 E 37 0 0,0
21.05.2018 01:00:00 10,0 3,8 8,5 12,1 15,7 10,9 21 11 35 19 E 43 0 0,0
21.05.2018 00:00:00 10,0 3,2 8,3 13,0 16,2 10,9 21 12 45 25 ENE 56 0 0,0
20.05.2018 23:00:00 10,3 2,2 8,8 14,0 16,7 10,9 21 12 35 19 ENE 54 0 0,0
20.05.2018 22:00:00 10,7 2,7 9,2 15,5 17,1 10,9 19 10 31 17 ENE 66 0 0,0
20.05.2018 21:00:00 11,9 3,2 10,5 17,3 17,4 10,9 18 10 40 21 ENE 70 54 0,0
20.05.2018 20:00:00 13,3 2,0 12,5 19,9 17,4 10,9 18 10 39 21 NE 70 60 0,0
20.05.2018 19:00:00 14,4 3,0 15,4 22,2 17,2 10,9 21 12 41 22 ENE 42 60 0,0
20.05.2018 18:00:00 15,5 2,7 18,1 23,4 16,7 10,9 19 10 39 21 ENE 25 56 0,0
20.05.2018 17:00:00 16,2 5,4 18,4 24,6 16,1 10,9 19 10 40 22 ENE 34 59 0,0
20.05.2018 16:00:00 16,6 5,8 20,5 24,1 15,3 10,9 17 9 40 22 ENE 32 53 0,0
20.05.2018 15:00:00 16,4 5,0 21,0 23,1 14,5 10,9 17 9 39 21 ENE 28 50 0,0
20.05.2018 14:00:00 16,3 6,1 21,3 22,2 13,7 10,9 22 12 44 24 E 22 60 0,0
20.05.2018 13:00:00 15,6 4,8 19,7 20,3 12,9 10,9 21 11 40 22 ENE 28 60 0,0
20.05.2018 12:00:00 14,9 4,8 18,4 17,7 12,3 10,9 20 11 39 21 E 28 60 0,0
20.05.2018 11:00:00 13,8 4,7 17,1 15,1 11,9 10,9 17 9 39 21 ENE 24 60 0,0
20.05.2018 10:00:00 12,4 4,2 15,0 12,7 11,6 10,9 20 11 37 20 ENE 19 60 0,0
20.05.2018 09:00:00 11,3 5,5 13,2 11,0 11,6 10,9 19 10 38 20 E 13 60 0,0
20.05.2018 08:00:00 9,8 6,7 10,8 9,8 11,7 10,9 17 9 34 18 ENE 8 60 0,0
20.05.2018 07:00:00 8,4 7,1 7,5 9,2 11,9 10,9 16 9 26 14 ENE 4,8 54 0,0
20.05.2018 06:00:00 7,8 7,0 6,6 9,4 12,1 10,9 17 9 29 15 NE 2,5 0 0,0
20.05.2018 05:00:00 8,1 7,3 7,6 9,8 12,3 10,9 18 10 31 17 NE 2,2 0 0,0
20.05.2018 04:00:00 8,0 7,4 7,4 9,9 12,6 10,9 19 10 31 17 NE 1,6 0 0,0
20.05.2018 03:00:00 8,2 7,7 7,8 9,9 12,9 10,9 19 10 31 17 ENE 1,5 0 0,0
20.05.2018 02:00:00 8,5 7,7 7,5 10,3 13,2 10,9 19 10 29 16 ENE 2,4 0 0,0
20.05.2018 01:00:00 8,3 7,4 7,4 10,7 13,5 10,9 17 9 31 17 ENE 2,3 0 0,0
20.05.2018 00:00:00 8,3 7,3 7,6 11,2 13,8 10,9 18 10 31 17 ENE 2,5 0 0,0
19.05.2018 23:00:00 8,2 6,9 7,8 11,6 14,2 10,9 20 11 31 17 ENE 2,9 0 0,0
19.05.2018 22:00:00 8,3 6,3 7,2 12,7 14,5 10,9 16 8 26 14 NNE 3,9 0 0,0
19.05.2018 21:00:00 9,1 6,3 8,1 14,3 14,6 10,9 13 7 25 13 NE 5 13 0,0
19.05.2018 20:00:00 10,2 6,3 10,3 16,2 14,6 10,9 13 7 24 13 NE 6 60 0,0
19.05.2018 19:00:00 11,1 6,3 13,0 17,8 14,3 10,9 11 6 27 14 NE 8 60 0,0
19.05.2018 18:00:00 11,4 6,2 14,6 18,8 13,9 10,9 13 7 26 14 NNE 8 60 0,0
19.05.2018 17:00:00 11,6 6,1 14,4 18,9 13,4 10,9 14 7 25 14 NE 8 59 0,0
19.05.2018 16:00:00 11,5 5,8 15,6 18,7 12,8 11,0 11 6 26 14 NE 9 58 0,0
19.05.2018 15:00:00 11,0 5,5 13,7 17,7 12,3 11,0 10 6 20 11 ENE 10 50 0,0
19.05.2018 14:00:00 10,3 4,8 14,9 15,9 11,8 11,0 9 5 27 15 ENE 9 44 0,0
19.05.2018 13:00:00 9,7 5,6 13,0 14,2 11,6 11,0 13 7 26 14 E 8 16 0,0
19.05.2018 12:00:00 8,1 5,4 9,7 12,8 11,3 11,0 11 6 21 11 NE 5 6 0,0
19.05.2018 11:00:00 7,4 5,2 9,6 11,6 11,2 11,0 15 8 25 14 NE 4,8 4 0,0
19.05.2018 10:00:00 7,0 5,0 8,7 10,6 11,1 11,0 12 7 21 12 ENE 5 0 0,0
19.05.2018 09:00:00 5,8 4,4 7,0 9,6 11,2 11,0 13 7 22 12 ENE 4,0 0 0,0
19.05.2018 08:00:00 5,4 4,6 6,2 9,1 11,3 11,0 12 7 22 12 ENE 3,4 0 0,0
19.05.2018 07:00:00 5,3 5,0 5,7 8,9 11,5 11,0 11 6 17 9 ENE 1,2 0 0,0
19.05.2018 06:00:00 5,4 5,2 5,6 8,9 11,6 11,0 8 4 14 8 ENE 0,1 0 0,0
19.05.2018 05:00:00 5,3 5,1 5,5 8,9 11,9 11,0 9 5 16 9 ENE 0,1 0 0,0
19.05.2018 04:00:00 5,3 5,1 5,5 9,0 12,1 11,0 9 5 16 9 ENE 0,1 0 0,0
19.05.2018 03:00:00 5,1 4,9 5,3 9,1 12,4 11,0 10 6 19 10 ENE 0,2 0 0,0
19.05.2018 02:00:00 5,0 4,7 5,1 9,3 12,7 11,0 12 7 20 11 ENE 0,2 0 0,0
19.05.2018 01:00:00 4,8 4,4 4,4 9,6 13,1 11,0 11 6 23 12 NE 2,4 0 0,0
19.05.2018 00:00:00 4,9 4,5 4,6 10,3 13,4 11,0 15 8 24 13 NE 1,5 0 0,0
18.05.2018 23:00:00 5,4 5,0 5,6 11,1 13,7 11,0 13 7 24 13 NE 0,3 0 0,0
18.05.2018 22:00:00 6,0 5,3 6,1 11,9 14,0 11,0 11 6 22 12 NNE 2,7 0 0,0
18.05.2018 21:00:00 6,6 5,4 6,9 13,1 14,2 11,0 11 6 21 11 NNE 4,3 2 0,0
18.05.2018 20:00:00 7,3 5,1 7,3 14,5 14,2 11,0 12 6 20 11 NNE 9 56 0,0
18.05.2018 19:00:00 8,4 4,7 9,6 16,1 14,1 11,0 11 6 21 11 N 15 60 0,0
18.05.2018 18:00:00 9,9 5,1 12,8 17,3 13,8 11,0 8 4 20 11 N 19 57 0,0
18.05.2018 17:00:00 10,3 5,5 13,7 16,8 13,4 11,0 9 5 21 11 NNE 19 20 0,0
18.05.2018 16:00:00 10,7 6,5 14,3 17,1 13,0 11,0 6 4 22 12 NE 21 18 0,0
18.05.2018 15:00:00 10,1 5,4 12,9 17,4 12,5 11,0 10 6 18 10 NE 17 19 0,0
18.05.2018 14:00:00 9,6 5,5 12,2 16,0 12,0 11,0 6 3 18 10 SSW 18 9 0,0
18.05.2018 13:00:00 8,1 4,7 12,0 13,7 11,8 11,0 5 3 13 7 SSW 22 0 0,0
18.05.2018 12:00:00 6,9 4,7 8,5 12,3 11,6 11,0 6 3 12 6 WSW 12 0 0,0
18.05.2018 11:00:00 5,7 4,6 7,3 11,1 11,6 11,0 6 3 11 6 SSW 8 0 0,0
18.05.2018 10:00:00 4,6 4,1 6,0 10,2 11,6 11,0 3 2 13 7 NW 1,4 0 0,0
18.05.2018 09:00:00 4,1 3,7 5,2 9,5 11,7 11,0 7 4 12 7 W 0,2 0 0,0
18.05.2018 08:00:00 4,2 4,0 5,0 9,2 11,9 11,0 6 3 11 6 N 0,1 0 0,0
18.05.2018 07:00:00 4,3 4,0 4,7 9,0 12,1 11,0 4 2 13 7 NW 0,1 0 0,0
18.05.2018 06:00:00 4,2 3,9 4,5 9,0 12,4 11,0 4 2 16 8 NNW 0,1 0 0,0
18.05.2018 05:00:00 4,3 4,0 4,4 9,2 12,6 11,0 7 4 16 8 NNW 0,1 0 0,0
18.05.2018 04:00:00 4,5 4,0 4,6 9,3 13,0 11,0 6 4 19 11 NNW 0,2 0 0,0
18.05.2018 03:00:00 5,0 4,5 5,1 9,4 13,4 11,0 10 6 21 11 N 1,9 0 0,0
18.05.2018 02:00:00 5,4 4,6 5,0 9,6 13,8 11,0 13 7 22 12 N 3,7 0 0,0
18.05.2018 01:00:00 6,1 4,7 5,3 10,3 14,3 11,0 14 8 27 15 NNW 7 0 0,0
18.05.2018 00:00:00 6,8 4,9 6,2 11,1 14,7 11,0 14 7 26 14 NNW 10 0 0,0
17.05.2018 23:00:00 7,4 5,3 6,6 12,0 15,1 11,0 14 8 25 14 NNW 11 0 0,0
17.05.2018 22:00:00 8,4 5,9 7,5 13,3 15,5 11,0 16 8 24 13 NNW 12 0 0,0
17.05.2018 21:00:00 9,5 5,9 8,5 14,8 15,7 11,0 8 4 22 12 NW 17 43 0,0
17.05.2018 20:00:00 11,0 5,2 10,8 16,7 15,8 11,1 8 4 19 10 NW 27 25 0,0

tt = Température de l'air
td = dewpoint
tt 5cm = Température de l'air 5cm
tt -5cm = Température de l'air -5cm
tt -20cm = Température de l'air -20cm
tt -100cm = Température de l'air -100cm
ff = Vitesse du vent
fx = gusts
dd = Direction du vent
vv = visibility
sd = Ensoleillement
rr = Quantités de précipitations

stations d'obs. à proximité